Time;durP1;ratioP1;P1;durP2;ratioP2;P2;SDS_P1;SDS_P2;PMS_P1;PMS_P2;Temp;Humidity;BMP_temperature;BMP_pressure;BME280_temperature;BME280_humidity;BME280_pressure;Samples;Min_cycle;Max_cycle;Signal;HPM_P1;HPM_P2
2022/04/15 00:02:24;;;;;;;;;7.00;3.75;;;;;17.88;51.81;101958.16;5058627;28;45517;-67
2022/04/15 00:04:50;;;;;;;;;5.00;3.50;;;;;17.96;51.98;101972.22;5059096;28;46300;-67
2022/04/15 00:07:17;;;;;;;;;5.25;5.25;;;;;17.91;52.21;101964.28;5058776;28;45473;-67
2022/04/15 00:09:42;;;;;;;;;6.00;6.00;;;;;17.89;52.11;101971.59;5059107;28;45493;-67
2022/04/15 00:12:10;;;;;;;;;5.75;5.25;;;;;17.85;52.27;101955.56;5054517;28;45414;-67
2022/04/15 00:14:36;;;;;;;;;4.00;3.25;;;;;18.08;52.02;102000.50;5058969;28;45400;-67
2022/04/15 00:17:02;;;;;;;;;6.75;6.75;;;;;18.05;52.56;101996.09;5060628;28;45428;-68
2022/04/15 00:19:27;;;;;;;;;4.00;4.00;;;;;17.84;52.25;101965.50;5062129;28;45327;-67
2022/04/15 00:21:53;;;;;;;;;4.75;4.75;;;;;17.78;52.28;101944.13;5061075;28;45438;-68
2022/04/15 00:24:18;;;;;;;;;4.25;4.25;;;;;17.81;52.32;101953.91;5062076;28;45449;-67
2022/04/15 00:26:44;;;;;;;;;4.00;4.00;;;;;17.98;52.66;101989.22;5061958;28;45327;-68
2022/04/15 00:29:09;;;;;;;;;5.75;4.75;;;;;17.88;52.57;101980.63;5062250;28;45398;-67
2022/04/15 00:31:35;;;;;;;;;6.25;5.00;;;;;17.98;52.63;101993.75;5081344;27;45490;-67
2022/04/15 00:34:03;;;;;;;;;1.75;1.75;;;;;17.95;52.41;101979.41;5061553;28;45533;-67
2022/04/15 00:36:29;;;;;;;;;5.00;4.75;;;;;17.81;52.87;101962.00;5060410;28;45494;-67
2022/04/15 00:38:55;;;;;;;;;6.50;6.00;;;;;17.86;52.87;101976.19;5062180;28;45289;-67
2022/04/15 00:41:20;;;;;;;;;6.50;6.00;;;;;17.95;52.94;101992.91;5059921;28;45505;-68
2022/04/15 00:43:45;;;;;;;;;6.00;6.00;;;;;17.81;53.02;101965.63;5060579;28;46007;-67
2022/04/15 00:46:11;;;;;;;;;5.25;5.25;;;;;17.69;52.56;101941.81;5061791;28;45342;-68
2022/04/15 00:48:37;;;;;;;;;8.75;8.75;;;;;17.91;52.79;101982.34;5061997;28;45323;-67
2022/04/15 00:51:04;;;;;;;;;6.75;5.75;;;;;17.84;53.20;101976.28;5059573;28;45500;-67
2022/04/15 00:53:30;;;;;;;;;7.25;6.25;;;;;17.71;53.20;101951.63;5061660;28;46655;-67
2022/04/15 00:56:03;;;;;;;;;5.50;5.50;;;;;17.91;53.17;102001.25;5060054;28;45755;-67
2022/04/15 00:58:33;;;;;;;;;6.50;6.50;;;;;17.59;52.75;101944.94;5051346;28;45460;-68
2022/04/15 01:01:00;;;;;;;;;6.25;6.25;;;;;17.63;53.34;101945.69;5060940;28;46625;-67
2022/04/15 01:03:25;;;;;;;;;5.75;5.75;;;;;17.88;53.27;101994.13;5061395;28;45333;-67
2022/04/15 01:05:55;;;;;;;;;7.50;6.75;;;;;17.69;53.28;101964.31;5060268;28;45232;-67
2022/04/15 01:08:23;;;;;;;;;6.50;6.50;;;;;17.61;53.12;101952.97;5060710;28;45554;-67
2022/04/15 01:10:52;;;;;;;;;5.75;5.75;;;;;17.73;53.32;101979.44;5059786;28;45432;-67
2022/04/15 01:13:20;;;;;;;;;5.75;5.75;;;;;17.59;53.17;101957.53;5061575;28;45534;-67
2022/04/15 01:15:48;;;;;;;;;5.50;5.50;;;;;17.57;53.49;101949.53;5061162;28;45451;-68
2022/04/15 01:18:13;;;;;;;;;6.00;6.00;;;;;17.65;53.25;101970.78;5060634;28;45330;-67
2022/04/15 01:20:42;;;;;;;;;5.75;5.75;;;;;17.75;53.51;101982.06;5060884;28;45243;-67
2022/04/15 01:23:08;;;;;;;;;5.25;4.50;;;;;17.63;53.54;101972.69;5059758;28;47107;-68
2022/04/15 01:25:34;;;;;;;;;9.25;6.50;;;;;17.75;53.51;101992.88;5059796;28;45461;-68
2022/04/15 01:28:00;;;;;;;;;4.75;4.50;;;;;17.55;53.56;101959.50;5060071;28;45366;-67
2022/04/15 01:30:25;;;;;;;;;7.75;6.00;;;;;17.55;53.62;101970.28;5060412;28;45365;-67
2022/04/15 01:32:51;;;;;;;;;5.75;5.75;;;;;17.52;53.54;101962.31;5060489;28;45405;-67
2022/04/15 01:35:19;;;;;;;;;8.50;7.00;;;;;17.67;53.38;101993.19;5061251;28;45448;-67
2022/04/15 01:37:46;;;;;;;;;5.25;5.25;;;;;17.57;53.49;101973.81;5061069;28;45322;-67
2022/04/15 01:40:14;;;;;;;;;5.50;5.50;;;;;17.63;53.49;101982.59;5060414;28;45276;-67
2022/04/15 01:42:41;;;;;;;;;6.75;6.00;;;;;17.43;53.58;101951.91;5061106;28;46198;-67
2022/04/15 01:45:07;;;;;;;;;5.00;5.00;;;;;17.51;53.36;101974.06;5056250;28;45359;-68
2022/04/15 01:47:33;;;;;;;;;8.00;6.50;;;;;17.51;53.68;101978.59;5054775;28;45310;-67
2022/04/15 01:49:59;;;;;;;;;4.75;4.75;;;;;17.35;53.77;101948.66;5063341;28;45342;-67
2022/04/15 01:52:25;;;;;;;;;6.50;6.50;;;;;17.67;53.60;102014.78;5065825;27;46519;-67
2022/04/15 01:54:50;;;;;;;;;5.25;4.00;;;;;17.59;53.87;101995.31;5060955;28;45231;-67
2022/04/15 01:57:16;;;;;;;;;8.00;6.50;;;;;17.37;53.68;101963.88;5056171;28;45184;-67
2022/04/15 01:59:42;;;;;;;;;4.25;4.25;;;;;17.61;53.42;102001.56;5058859;28;45646;-68
2022/04/15 02:02:08;;;;;;;;;5.25;5.25;;;;;17.41;53.50;101968.19;5060100;28;46320;-67
2022/04/15 02:04:35;;;;;;;;;7.50;5.75;;;;;17.35;53.75;101960.31;5059460;28;46067;-67
2022/04/15 02:07:01;;;;;;;;;4.25;3.25;;;;;17.24;53.65;101938.31;5060855;28;45623;-67
2022/04/15 02:09:26;;;;;;;;;5.75;5.75;;;;;17.37;53.60;101969.25;5056187;28;45505;-67
2022/04/15 02:11:52;;;;;;;;;6.25;5.25;;;;;17.26;53.62;101958.03;5059098;28;46419;-67
2022/04/15 02:14:18;;;;;;;;;7.00;7.00;;;;;17.49;53.68;101988.56;5047282;28;45427;-67
2022/04/15 02:16:44;;;;;;;;;7.25;7.25;;;;;17.05;53.71;101927.41;5059255;28;45422;-67
2022/04/15 02:19:10;;;;;;;;;5.00;5.00;;;;;17.23;54.30;101967.09;5059392;28;45310;-68
2022/04/15 02:21:35;;;;;;;;;3.00;3.00;;;;;17.19;53.92;101970.00;5058595;28;47687;-67
2022/04/15 02:24:01;;;;;;;;;7.75;6.25;;;;;17.23;53.79;101972.50;5060740;28;45253;-67
2022/04/15 02:26:26;;;;;;;;;6.75;5.75;;;;;17.11;53.84;101953.25;5058814;28;45346;-67
2022/04/15 02:28:52;;;;;;;;;7.50;7.50;;;;;17.15;54.44;101969.25;5058361;28;45253;-67
2022/04/15 02:31:18;;;;;;;;;7.00;5.25;;;;;17.31;54.24;101999.19;5058801;28;46353;-67
2022/04/15 02:33:43;;;;;;;;;6.25;5.75;;;;;17.34;54.17;102003.56;5058447;28;45654;-67
2022/04/15 02:36:09;;;;;;;;;6.75;6.75;;;;;17.19;54.14;101983.47;5060219;28;45443;-67
2022/04/15 02:38:34;;;;;;;;;10.75;9.50;;;;;17.10;54.45;101970.38;5058330;28;45392;-67
2022/04/15 02:41:01;;;;;;;;;10.75;7.50;;;;;17.06;54.44;101960.63;5061337;28;46032;-67
2022/04/15 02:43:39;;;;;;;;;7.25;6.50;;;;;17.25;54.57;102006.66;5059988;28;45507;-67
2022/04/15 02:46:07;;;;;;;;;6.50;6.50;;;;;16.91;54.72;101945.97;5060072;28;45327;-67
2022/04/15 02:48:33;;;;;;;;;6.75;6.75;;;;;16.95;54.30;101966.47;5058321;28;45599;-67
2022/04/15 02:51:00;;;;;;;;;8.25;8.25;;;;;17.17;54.82;101998.84;5059792;28;46395;-67
2022/04/15 02:53:25;;;;;;;;;10.75;10.00;;;;;16.99;54.38;101966.28;5059837;28;45341;-67
2022/04/15 02:55:52;;;;;;;;;10.50;9.75;;;;;17.01;54.40;101980.59;5058811;28;45347;-67
2022/04/15 02:58:17;;;;;;;;;10.50;9.00;;;;;17.19;54.73;102016.75;5046916;28;45390;-67
2022/04/15 03:00:43;;;;;;;;;6.50;6.50;;;;;17.17;54.49;102010.56;5063889;28;47028;-67
2022/04/15 03:03:08;;;;;;;;;9.00;8.50;;;;;16.90;54.75;101963.94;5059655;28;45724;-67
2022/04/15 03:05:34;;;;;;;;;7.00;6.75;;;;;17.09;54.84;102011.78;5059935;28;45239;-67
2022/04/15 03:07:59;;;;;;;;;9.50;8.25;;;;;16.80;54.95;101959.81;5058922;28;45323;-67
2022/04/15 03:10:25;;;;;;;;;10.25;9.25;;;;;16.77;54.95;101955.44;5053947;28;45417;-67
2022/04/15 03:12:51;;;;;;;;;9.00;8.25;;;;;16.84;55.02;101966.88;5059941;28;45303;-67
2022/04/15 03:15:17;;;;;;;;;10.25;9.00;;;;;16.87;54.91;101977.53;5049567;28;45304;-67
2022/04/15 03:17:42;;;;;;;;;10.75;9.25;;;;;16.88;55.01;101978.44;5058695;28;45397;-67
2022/04/15 03:20:09;;;;;;;;;8.00;7.50;;;;;17.01;54.95;102006.69;5059086;28;47018;-67
2022/04/15 03:22:41;;;;;;;;;7.00;7.00;;;;;16.99;55.23;102008.53;5059261;28;45633;-67
2022/04/15 03:25:11;;;;;;;;;9.50;9.50;;;;;16.85;55.14;101990.22;5058880;28;45489;-67
2022/04/15 03:27:36;;;;;;;;;9.00;8.75;;;;;16.81;55.23;101983.16;5053096;28;45339;-67
2022/04/15 03:30:04;;;;;;;;;8.50;8.25;;;;;16.93;55.13;102001.59;5059373;28;45295;-67
2022/04/15 03:32:30;;;;;;;;;9.50;9.00;;;;;16.76;55.40;101987.88;5074554;28;45699;-67
2022/04/15 03:34:56;;;;;;;;;7.00;6.50;;;;;16.78;55.42;101989.53;5059543;28;45512;-67
2022/04/15 03:37:22;;;;;;;;;8.25;8.25;;;;;16.91;55.21;102006.16;5051163;28;45501;-67
2022/04/15 03:39:47;;;;;;;;;9.00;8.00;;;;;16.63;55.28;101971.28;5057826;28;48124;-67
2022/04/15 03:42:13;;;;;;;;;10.25;9.25;;;;;16.73;55.18;101990.66;5059540;28;45266;-67
2022/04/15 03:44:38;;;;;;;;;6.00;6.00;;;;;16.67;55.55;101980.97;5054574;28;45429;-67
2022/04/15 03:47:05;;;;;;;;;4.25;4.25;;;;;16.61;55.56;101971.31;5054533;28;45334;-67
2022/04/15 03:49:31;;;;;;;;;8.00;8.00;;;;;16.62;55.39;101978.47;5058896;28;45512;-67
2022/04/15 03:51:57;;;;;;;;;8.00;8.00;;;;;16.68;55.49;101986.31;5060565;28;45612;-67
2022/04/15 03:54:23;;;;;;;;;10.50;7.75;;;;;16.44;55.33;101957.63;5062959;28;45332;-67
2022/04/15 03:56:48;;;;;;;;;8.00;8.00;;;;;16.82;55.38;102028.06;5052989;28;45212;-67
2022/04/15 03:59:14;;;;;;;;;8.75;8.75;;;;;16.81;55.53;102027.19;5057880;28;46206;-67
2022/04/15 04:01:39;;;;;;;;;7.25;7.25;;;;;16.70;55.57;102006.97;5062665;28;45195;-67
2022/04/15 04:04:05;;;;;;;;;11.00;9.00;;;;;16.78;55.75;102023.72;5062380;28;45279;-67
2022/04/15 04:06:31;;;;;;;;;12.00;10.50;;;;;16.75;56.07;102019.31;5061209;28;45475;-67
2022/04/15 04:08:57;;;;;;;;;8.00;7.00;;;;;16.75;55.75;102022.00;5062239;28;46119;-67
2022/04/15 04:11:22;;;;;;;;;9.00;7.00;;;;;16.53;55.59;101988.72;5062493;28;45398;-67
2022/04/15 04:13:48;;;;;;;;;8.50;8.50;;;;;16.74;55.66;102030.16;5062613;28;45291;-67
2022/04/15 04:16:14;;;;;;;;;11.00;9.00;;;;;16.47;55.80;101990.72;5054744;28;45356;-67
2022/04/15 04:18:40;;;;;;;;;8.75;8.75;;;;;16.51;55.87;101998.69;5057669;28;45391;-67
2022/04/15 04:21:07;;;;;;;;;10.00;10.00;;;;;16.63;56.06;102027.88;5066412;28;45842;-67
2022/04/15 04:23:32;;;;;;;;;9.50;9.50;;;;;16.39;55.88;101989.22;5077173;28;45492;-67
2022/04/15 04:26:01;;;;;;;;;10.00;8.75;;;;;16.61;56.13;102038.72;5057143;28;45498;-67
2022/04/15 04:28:26;;;;;;;;;13.00;10.00;;;;;16.38;56.07;102007.22;5062020;28;45262;-67
2022/04/15 04:30:52;;;;;;;;;12.25;9.50;;;;;16.45;56.29;102016.81;5062102;28;45173;-67
2022/04/15 04:33:18;;;;;;;;;10.00;10.00;;;;;16.57;55.97;102036.19;5061478;28;45432;-67
2022/04/15 04:35:44;;;;;;;;;9.75;9.75;;;;;16.37;55.86;102001.88;5056590;28;45523;-67
2022/04/15 04:38:09;;;;;;;;;10.50;8.75;;;;;16.42;56.27;102014.28;5057914;28;45888;-67
2022/04/15 04:40:35;;;;;;;;;11.25;10.00;;;;;16.54;56.17;102036.28;5056776;28;45413;-67
2022/04/15 04:43:02;;;;;;;;;8.25;7.75;;;;;16.38;56.15;102009.91;5057810;28;45449;-67
2022/04/15 04:45:29;;;;;;;;;8.50;8.50;;;;;16.25;56.27;101993.31;5060848;28;45853;-67
2022/04/15 04:47:56;;;;;;;;;9.25;8.00;;;;;16.16;56.77;101984.69;5063382;28;47954;-67
2022/04/15 04:50:22;;;;;;;;;9.50;9.50;;;;;16.53;56.39;102048.03;5069643;28;45469;-67
2022/04/15 04:52:48;;;;;;;;;10.75;10.75;;;;;16.38;56.48;102028.78;5061454;28;45296;-67
2022/04/15 04:55:15;;;;;;;;;9.25;8.25;;;;;16.22;56.63;102001.53;5053687;28;45541;-67
2022/04/15 04:57:42;;;;;;;;;9.00;9.00;;;;;16.26;56.47;102016.63;5046989;28;46428;-67
2022/04/15 05:00:09;;;;;;;;;11.75;10.25;;;;;16.50;56.52;102057.09;5073755;28;45597;-67
2022/04/15 05:02:35;;;;;;;;;9.75;9.75;;;;;16.33;56.68;102043.34;5061216;28;45342;-67
2022/04/15 05:05:00;;;;;;;;;11.00;11.00;;;;;16.35;57.02;102041.47;5061838;28;45226;-67
2022/04/15 05:07:26;;;;;;;;;10.00;10.00;;;;;16.23;56.76;102022.13;5047875;28;45440;-67
2022/04/15 05:09:52;;;;;;;;;10.50;9.75;;;;;16.30;57.11;102041.63;5061530;28;45280;-67
2022/04/15 05:12:17;;;;;;;;;10.50;9.25;;;;;16.27;57.19;102039.94;5060284;28;45347;-66
2022/04/15 05:14:43;;;;;;;;;11.50;10.00;;;;;16.38;57.35;102061.09;5076909;28;45202;-67
2022/04/15 05:17:08;;;;;;;;;11.50;11.00;;;;;16.20;57.10;102035.69;5059527;28;47189;-67
2022/04/15 05:19:34;;;;;;;;;10.75;9.75;;;;;16.22;57.21;102047.31;5063452;28;45512;-67
2022/04/15 05:21:59;;;;;;;;;12.75;10.25;;;;;16.40;57.40;102079.91;5063066;28;45279;-67
2022/04/15 05:24:25;;;;;;;;;10.25;10.25;;;;;16.03;57.39;102012.06;5059440;28;45407;-67
2022/04/15 05:26:50;;;;;;;;;11.00;11.00;;;;;16.10;57.45;102031.56;5057226;28;45738;-67
2022/04/15 05:29:16;;;;;;;;;11.25;9.50;;;;;16.14;57.50;102041.31;5054833;28;45430;-67
2022/04/15 05:31:42;;;;;;;;;11.00;10.50;;;;;16.30;57.60;102074.88;5061009;28;45248;-67
2022/04/15 05:34:08;;;;;;;;;10.25;9.50;;;;;16.18;57.57;102055.56;5060682;28;45377;-67
2022/04/15 05:36:34;;;;;;;;;11.00;11.00;;;;;15.97;57.40;102028.44;5058526;28;46972;-67
2022/04/15 05:39:00;;;;;;;;;11.00;11.00;;;;;16.11;57.82;102052.19;5073257;28;45647;-67
2022/04/15 05:41:25;;;;;;;;;12.00;10.75;;;;;16.15;57.32;102053.84;5073450;28;45466;-67
2022/04/15 05:43:51;;;;;;;;;11.25;11.25;;;;;15.95;57.38;102024.91;5051656;28;45571;-67
2022/04/15 05:46:16;;;;;;;;;13.25;10.50;;;;;16.25;57.86;102092.13;5072297;28;47403;-71
2022/04/15 05:48:42;;;;;;;;;12.25;12.25;;;;;16.25;57.58;102092.13;5074199;28;45220;-67
2022/04/15 05:51:07;;;;;;;;;7.75;7.50;;;;;16.10;57.54;102067.50;5054297;28;45549;-69
2022/04/15 05:53:33;;;;;;;;;10.50;10.50;;;;;16.06;57.96;102062.25;5055030;28;45477;-68
2022/04/15 05:56:10;;;;;;;;;9.25;7.50;;;;;16.26;57.64;102104.66;5051787;28;47207;-69
2022/04/15 05:59:14;;;;;;;;;11.00;11.00;;;;;16.23;57.59;102100.25;5052702;28;45509;-69
2022/04/15 06:02:03;;;;;;;;;10.75;10.75;;;;;16.23;57.80;102091.28;5060759;28;45452;-70
2022/04/15 06:05:30;;;;;;;;;;;;;;;;;;;;;
2022/04/15 06:10:56;;;;;;;;;;;;;;;;;;;;;
2022/04/15 06:13:48;;;;;;;;;14.25;12.75;;;;;16.18;58.09;102115.69;5045344;28;69185;-69
2022/04/15 06:17:26;;;;;;;;;;;;;;;;;;;;;
2022/04/15 06:19:42;;;;;;;;;14.00;14.00;;;;;16.21;58.02;102123.69;5044689;28;45514;-69
2022/04/15 06:22:14;;;;;;;;;14.50;12.50;;;;;16.02;58.10;102101.88;5059018;28;45450;-69
2022/04/15 06:24:40;;;;;;;;;15.50;13.00;;;;;16.00;58.08;102086.69;5058538;28;45365;-69
2022/04/15 06:27:15;;;;;;;;;13.50;12.75;;;;;15.96;58.05;102094.00;5050807;28;47207;-69
2022/04/15 06:29:43;;;;;;;;;14.50;14.50;;;;;16.05;58.26;102114.34;5047189;28;45478;-69
2022/04/15 06:32:26;;;;;;;;;16.50;15.75;;;;;15.77;58.21;102050.66;5054891;28;45350;-69
2022/04/15 06:34:54;;;;;;;;;14.50;14.00;;;;;15.92;58.49;102082.44;5051900;28;45324;-70
2022/04/15 06:37:29;;;;;;;;;15.50;14.00;;;;;15.99;58.12;102101.06;5054554;28;46003;-69
2022/04/15 06:39:54;;;;;;;;;14.00;12.00;;;;;15.92;58.12;102090.53;5058988;28;46231;-69
2022/04/15 06:42:47;;;;;;;;;15.75;15.00;;;;;16.09;58.31;102107.94;5054776;28;47216;-69
2022/04/15 06:45:23;;;;;;;;;14.50;12.25;;;;;16.05;58.07;102104.44;5055832;28;45427;-69
2022/04/15 06:48:00;;;;;;;;;16.75;16.75;;;;;16.04;57.97;102101.84;5059648;28;45450;-69
2022/04/15 06:50:26;;;;;;;;;13.50;13.50;;;;;16.04;57.65;102112.59;5047608;28;46303;-68
2022/04/15 06:52:52;;;;;;;;;12.50;12.50;;;;;16.11;58.06;102117.72;5049904;28;45490;-69
2022/04/15 06:55:18;;;;;;;;;11.75;11.75;;;;;16.17;57.74;102123.81;5063845;28;45566;-69
2022/04/15 06:57:43;;;;;;;;;13.50;10.00;;;;;16.24;57.87;102134.34;5058876;28;45465;-69
2022/04/15 07:00:13;;;;;;;;;10.50;10.50;;;;;16.21;57.90;102136.28;5058055;28;45541;-69
2022/04/15 07:02:40;;;;;;;;;13.75;12.00;;;;;16.28;58.06;102135.13;5050690;28;45478;-69
2022/04/15 07:05:09;;;;;;;;;15.00;14.00;;;;;16.28;57.66;102144.06;5057152;28;45469;-69
2022/04/15 07:07:34;;;;;;;;;16.50;16.50;;;;;16.18;58.20;102113.00;5058333;28;45483;-69
2022/04/15 07:10:00;;;;;;;;;19.75;17.50;;;;;16.30;57.74;102139.53;5057554;28;45466;-69
2022/04/15 07:12:26;;;;;;;;;15.75;14.50;;;;;16.27;57.99;102130.66;5052647;28;45517;-71
2022/04/15 07:14:52;;;;;;;;;13.00;12.75;;;;;16.28;58.05;102130.59;5053881;28;45387;-69
2022/04/15 07:17:17;;;;;;;;;17.25;15.50;;;;;16.04;57.87;102085.69;5058601;28;45603;-68
2022/04/15 07:19:43;;;;;;;;;17.75;17.75;;;;;16.24;57.84;102117.31;5057726;28;46188;-68
2022/04/15 07:22:08;;;;;;;;;17.25;15.75;;;;;16.20;57.61;102121.91;5057765;28;45796;-69
2022/04/15 07:24:34;;;;;;;;;19.75;17.75;;;;;16.17;57.75;102113.94;5057219;28;45768;-69
2022/04/15 07:27:00;;;;;;;;;15.25;14.00;;;;;16.19;58.08;102108.47;5059440;28;45398;-69
2022/04/15 07:29:26;;;;;;;;;16.75;15.75;;;;;16.54;57.86;102161.19;5055676;28;48248;-69
2022/04/15 07:31:54;;;;;;;;;15.50;15.25;;;;;16.32;57.48;102115.22;5058124;28;45336;-68
2022/04/15 07:34:23;;;;;;;;;22.25;18.75;;;;;16.55;58.17;102146.75;5058798;28;45782;-78
2022/04/15 07:36:54;;;;;;;;;17.50;17.50;;;;;16.48;57.29;102126.34;5050746;28;45519;-67
2022/04/15 07:39:20;;;;;;;;;20.00;16.00;;;;;16.49;57.83;102123.59;5060638;28;46231;-65
2022/04/15 07:41:47;;;;;;;;;19.00;16.75;;;;;16.66;57.56;102141.00;5062107;28;45391;-65
2022/04/15 07:44:13;;;;;;;;;20.50;19.00;;;;;16.62;57.13;102125.84;5061109;28;45481;-65
2022/04/15 07:46:40;;;;;;;;;20.50;15.50;;;;;16.75;57.19;102142.47;5054821;28;45406;-67
2022/04/15 07:49:07;;;;;;;;;15.50;13.75;;;;;16.66;56.77;102122.13;5076563;27;47746;-68
2022/04/15 07:51:35;;;;;;;;;19.25;18.25;;;;;16.93;56.40;102160.72;5072976;28;45515;-68
2022/04/15 07:54:02;;;;;;;;;17.25;16.75;;;;;16.96;56.85;102162.44;5053354;28;45410;-69
2022/04/15 07:56:28;;;;;;;;;17.75;15.75;;;;;17.02;56.33;102160.41;5061313;28;45368;-69
2022/04/15 07:58:53;;;;;;;;;17.75;16.00;;;;;17.11;56.32;102158.28;5052267;28;46614;-69
2022/04/15 08:01:19;;;;;;;;;19.00;17.25;;;;;17.15;56.30;102151.84;5043812;28;45539;-68
2022/04/15 08:03:46;;;;;;;;;20.25;17.25;;;;;17.26;55.63;102160.41;5054753;28;45465;-68
2022/04/15 08:06:12;;;;;;;;;22.00;22.00;;;;;17.33;56.43;102153.84;5061563;28;45473;-68
2022/04/15 08:08:37;;;;;;;;;18.00;18.00;;;;;17.34;56.07;102162.81;5048639;28;45468;-67
2022/04/15 08:11:03;;;;;;;;;22.50;19.25;;;;;17.44;56.27;102157.94;5054824;28;45155;-68
2022/04/15 08:13:29;;;;;;;;;15.25;15.25;;;;;17.50;55.54;102161.28;5054220;28;45299;-68
2022/04/15 08:15:54;;;;;;;;;14.50;13.25;;;;;17.56;55.19;102162.88;5077222;28;45532;-69
2022/04/15 08:18:23;;;;;;;;;13.50;13.50;;;;;17.65;55.17;102167.03;5061666;28;45341;-67
2022/04/15 08:20:53;;;;;;;;;11.50;9.50;;;;;17.68;53.92;102162.38;5060836;28;45495;-67
2022/04/15 08:23:19;;;;;;;;;9.00;8.25;;;;;17.66;53.87;102166.97;5060848;28;45386;-67
2022/04/15 08:25:45;;;;;;;;;12.25;12.25;;;;;17.64;53.56;102165.25;5057076;28;45443;-67
2022/04/15 08:28:11;;;;;;;;;11.75;11.75;;;;;17.64;54.01;102165.25;5058916;28;46139;-68
2022/04/15 08:30:37;;;;;;;;;13.00;12.00;;;;;17.67;53.50;102165.13;5054643;28;45649;-67
2022/04/15 08:33:07;;;;;;;;;12.00;11.00;;;;;17.69;53.73;102163.25;5054293;28;45394;-70
2022/04/15 08:35:34;;;;;;;;;11.00;10.00;;;;;17.72;53.51;102168.53;5060721;28;45334;-70
2022/04/15 08:38:00;;;;;;;;;12.75;12.75;;;;;17.71;53.24;102164.09;5060044;28;46045;-69
2022/04/15 08:40:27;;;;;;;;;10.75;10.75;;;;;17.70;53.67;102160.50;5059944;28;45478;-73
2022/04/15 08:42:53;;;;;;;;;12.25;11.00;;;;;17.81;53.71;102176.28;5060558;28;45443;-70
2022/04/15 08:45:21;;;;;;;;;9.00;9.00;;;;;17.86;53.22;102176.97;5060414;28;45458;-69
2022/04/15 08:47:48;;;;;;;;;9.75;9.50;;;;;17.87;52.72;102169.78;5054835;28;46159;-69
2022/04/15 08:50:14;;;;;;;;;9.75;9.75;;;;;17.83;53.40;102171.69;5059731;28;45346;-69
2022/04/15 08:52:41;;;;;;;;;10.75;9.75;;;;;17.90;53.63;102180.47;5045095;28;45459;-69
2022/04/15 08:55:07;;;;;;;;;8.25;8.25;;;;;17.93;53.25;102169.53;5060480;28;45629;-69
2022/04/15 08:57:32;;;;;;;;;7.50;7.00;;;;;17.95;52.75;102168.50;5055778;28;45335;-69
2022/04/15 08:59:58;;;;;;;;;8.50;7.00;;;;;18.05;52.82;102178.97;5060599;28;45319;-69
2022/04/15 09:02:37;;;;;;;;;6.25;6.25;;;;;18.08;52.40;102184.25;5059130;28;45449;-69
2022/04/15 09:05:04;;;;;;;;;8.50;7.75;;;;;18.08;52.24;102182.41;5049659;28;45331;-69
2022/04/15 09:07:31;;;;;;;;;9.25;7.25;;;;;18.12;52.16;102192.13;5056915;28;45395;-69
2022/04/15 09:09:58;;;;;;;;;9.50;7.00;;;;;18.11;52.93;102189.53;5049675;28;45745;-69
2022/04/15 09:12:47;;;;;;;;;9.75;5.00;;;;;18.10;52.33;102188.63;5056693;28;45449;-69
2022/04/15 09:15:13;;;;;;;;;7.00;7.00;;;;;18.16;52.48;102190.22;5052019;28;45251;-69
2022/04/15 09:17:46;;;;;;;;;6.75;6.75;;;;;18.21;52.40;102190.91;5058226;28;46930;-69
2022/04/15 09:20:11;;;;;;;;;7.75;6.00;;;;;18.20;52.05;102186.44;5014606;28;1260098;-69
2022/04/15 09:22:37;;;;;;;;;6.75;6.75;;;;;18.20;51.78;102193.66;5065048;28;45532;-69
2022/04/15 09:25:04;;;;;;;;;6.75;6.00;;;;;18.21;52.45;102196.31;5049768;28;45207;-69
2022/04/15 09:27:29;;;;;;;;;5.75;5.25;;;;;18.19;52.01;102195.47;5057987;28;47331;-68
2022/04/15 09:29:55;;;;;;;;;6.25;5.75;;;;;18.23;52.36;102196.25;5061034;28;45299;-69
2022/04/15 09:32:22;;;;;;;;;5.25;5.25;;;;;18.24;52.18;102188.06;5060526;28;45299;-69
2022/04/15 09:35:08;;;;;;;;;5.50;4.75;;;;;18.27;52.03;102189.75;5057385;28;45541;-69
2022/04/15 09:37:42;;;;;;;;;9.75;7.00;;;;;18.28;52.35;102195.09;5058855;28;45337;-69
2022/04/15 09:40:26;;;;;;;;;8.25;5.75;;;;;18.32;52.66;102185.91;5061119;28;45524;-69
2022/04/15 09:42:51;;;;;;;;;7.25;6.75;;;;;18.41;52.01;102191.88;5045212;28;45708;-69
2022/04/15 09:45:31;;;;;;;;;4.25;3.75;;;;;18.47;51.68;102181.66;5043436;28;45598;-69
2022/04/15 09:47:59;;;;;;;;;4.25;3.75;;;;;18.45;51.72;102178.16;5053612;28;45362;-69
2022/04/15 09:50:30;;;;;;;;;5.75;4.75;;;;;18.54;52.00;102189.53;5046836;28;45339;-69
2022/04/15 09:53:14;;;;;;;;;6.00;6.00;;;;;18.55;51.39;102186.75;5079668;27;45293;-69
2022/04/15 09:55:50;;;;;;;;;6.75;5.00;;;;;18.58;51.38;102178.53;5054172;28;45609;-69
2022/04/15 09:58:21;;;;;;;;;5.25;5.25;;;;;18.62;51.08;102187.38;5059188;28;46150;-69
2022/04/15 10:00:51;;;;;;;;;6.00;6.00;;;;;18.64;51.57;102189.09;5060504;28;45416;-69
2022/04/15 10:03:19;;;;;;;;;5.00;5.00;;;;;18.70;51.37;102183.38;5048609;28;45363;-69
2022/04/15 10:05:45;;;;;;;;;5.50;5.50;;;;;18.70;50.86;102166.28;5051422;28;45457;-68
2022/04/15 10:08:11;;;;;;;;;7.50;6.25;;;;;18.74;50.64;102175.13;5042031;28;45419;-69
2022/04/15 10:10:36;;;;;;;;;5.00;5.00;;;;;18.79;50.60;102168.56;5051626;28;45290;-69
2022/04/15 10:13:06;;;;;;;;;6.00;5.00;;;;;18.84;50.77;102174.72;5046628;28;45365;-69
2022/04/15 10:15:32;;;;;;;;;7.25;5.50;;;;;18.83;50.66;102159.41;5053437;28;45242;-69
2022/04/15 10:18:00;;;;;;;;;6.50;6.50;;;;;18.92;50.94;102165.38;5057155;28;46139;-69
2022/04/15 10:20:27;;;;;;;;;8.25;8.00;;;;;18.98;50.88;102165.09;5058578;28;45437;-69
2022/04/15 10:22:54;;;;;;;;;6.25;5.50;;;;;18.98;50.48;102159.69;5058565;28;45436;-69
2022/04/15 10:25:19;;;;;;;;;5.00;4.00;;;;;19.05;50.25;102159.31;5059345;28;45295;-69
2022/04/15 10:27:45;;;;;;;;;5.50;4.50;;;;;19.10;50.52;102159.13;5051023;28;45749;-69
2022/04/15 10:30:20;;;;;;;;;4.25;4.25;;;;;19.23;50.48;102160.31;5060344;28;45311;-68
2022/04/15 10:33:04;;;;;;;;;4.50;4.50;;;;;19.29;49.91;102161.84;5054604;28;45241;-69
2022/04/15 10:35:32;;;;;;;;;4.50;4.25;;;;;19.35;49.87;102166.97;5051803;28;45410;-68
2022/04/15 10:37:58;;;;;;;;;5.00;5.00;;;;;19.36;49.41;102163.34;5056555;28;47445;-69
2022/04/15 10:40:32;;;;;;;;;6.25;4.00;;;;;19.40;49.60;102154.09;5053352;28;45403;-69
2022/04/15 10:43:19;;;;;;;;;3.25;3.25;;;;;19.43;49.55;102148.56;5045728;28;45524;-69
2022/04/15 10:45:45;;;;;;;;;4.00;4.00;;;;;19.39;49.54;102135.22;5056334;28;45520;-69
2022/04/15 10:48:10;;;;;;;;;4.75;4.00;;;;;19.51;49.40;102153.63;5046887;28;45398;-69
2022/04/15 10:50:39;;;;;;;;;4.00;3.75;;;;;19.53;48.94;102159.81;5057801;28;45477;-69
2022/04/15 10:53:38;;;;;;;;;4.00;4.00;;;;;19.53;49.02;102156.22;5056409;28;46041;-69
2022/04/15 10:56:09;;;;;;;;;3.00;2.50;;;;;19.50;49.04;102146.44;5056696;28;45700;-69
2022/04/15 11:02:01;;;;;;;;;3.00;3.00;;;;;19.56;48.87;102151.56;5047339;28;45499;-69
2022/04/15 11:04:34;;;;;;;;;5.00;4.75;;;;;19.59;49.11;102153.22;5054851;28;45870;-69
2022/04/15 11:07:14;;;;;;;;;3.00;3.00;;;;;19.61;48.23;102148.59;5062244;28;45528;-68
2022/04/15 11:09:39;;;;;;;;;6.00;6.00;;;;;19.60;47.95;102142.31;5057483;28;46439;-69
2022/04/15 11:12:06;;;;;;;;;3.50;3.50;;;;;19.63;48.33;102146.72;5056390;28;45385;-68
2022/04/15 11:14:34;;;;;;;;;4.25;2.75;;;;;19.61;48.04;102133.25;5054198;28;45491;-69
2022/04/15 11:17:00;;;;;;;;;4.00;4.00;;;;;19.66;47.71;102142.97;5057756;28;45217;-69
2022/04/15 11:19:26;;;;;;;;;3.50;3.50;;;;;19.65;47.70;102127.69;5057887;28;47324;-69
2022/04/15 11:21:53;;;;;;;;;2.00;2.00;;;;;19.63;47.70;102125.94;5056274;28;45468;-69
2022/04/15 11:24:30;;;;;;;;;4.00;3.00;;;;;19.65;47.55;102133.13;5058300;28;45370;-69
2022/04/15 11:27:03;;;;;;;;;8.00;8.00;;;;;19.72;47.56;102139.97;5059247;28;45388;-69
2022/04/15 11:29:34;;;;;;;;;2.50;2.50;;;;;19.67;47.45;102126.66;5051515;28;46077;-65
2022/04/15 11:32:05;;;;;;;;;3.00;3.00;;;;;19.80;47.57;102133.25;5045389;28;45493;-65
2022/04/15 11:34:31;;;;;;;;;3.00;3.00;;;;;19.83;47.29;102124.13;5070739;28;45426;-65
2022/04/15 11:37:01;;;;;;;;;4.75;4.00;;;;;19.89;46.71;102134.63;5055026;28;45406;-65